createdAt,value
2022-12-11T00:00:52.554Z,64.27
2022-12-11T00:03:19.584Z,59.77
2022-12-11T00:05:46.951Z,66.67
2022-12-11T00:08:14.357Z,62.87
2022-12-11T00:10:48.875Z,69.47
2022-12-11T00:13:15.909Z,65.70
2022-12-11T00:15:43.014Z,63.00
2022-12-11T00:18:14.267Z,66.03
2022-12-11T00:20:41.746Z,55.80
2022-12-11T00:23:08.844Z,62.73
2022-12-11T00:25:35.838Z,55.37
2022-12-11T00:28:02.774Z,57.40
2022-12-11T00:30:29.706Z,54.03
2022-12-11T00:32:56.696Z,57.17
2022-12-11T00:35:23.558Z,56.37
2022-12-11T00:37:50.439Z,57.80
2022-12-11T00:40:17.543Z,51.10
2022-12-11T00:42:44.489Z,49.80
2022-12-11T00:45:11.881Z,48.27
2022-12-11T00:47:39.178Z,51.43
2022-12-11T00:50:06.705Z,49.57
2022-12-11T00:52:33.737Z,47.93
2022-12-11T00:55:00.991Z,53.03
2022-12-11T00:57:28.031Z,53.90
2022-12-11T00:59:54.918Z,50.80
2022-12-11T01:02:21.915Z,50.23
2022-12-11T01:04:48.820Z,48.07
2022-12-11T01:07:15.734Z,49.43
2022-12-11T01:10:01.180Z,48.93
2022-12-11T01:12:28.685Z,50.30
2022-12-11T01:14:55.598Z,50.13
2022-12-11T01:17:22.492Z,53.37
2022-12-11T01:19:49.385Z,48.20
2022-12-11T01:22:16.411Z,46.03
2022-12-11T01:24:43.540Z,52.37
2022-12-11T01:27:10.491Z,49.83
2022-12-11T01:29:37.625Z,51.73
2022-12-11T01:32:04.724Z,55.80
2022-12-11T01:34:33.369Z,57.43
2022-12-11T01:37:00.322Z,55.50
2022-12-11T01:39:27.301Z,60.53
2022-12-11T01:41:58.820Z,54.87
2022-12-11T01:44:25.748Z,56.73
2022-12-11T01:46:53.770Z,49.13
2022-12-11T01:49:24.364Z,58.50
2022-12-11T01:51:55.985Z,59.00
2022-12-11T01:54:25.837Z,55.13
2022-12-11T01:56:55.200Z,52.60
2022-12-11T01:59:26.867Z,50.27
2022-12-11T02:02:11.211Z,49.43
2022-12-11T02:04:40.164Z,50.67
2022-12-11T02:07:07.037Z,52.93
2022-12-11T02:09:36.851Z,50.93
2022-12-11T02:12:15.505Z,49.43
2022-12-11T02:14:54.079Z,49.70
2022-12-11T02:17:43.767Z,49.47
2022-12-11T02:20:27.749Z,45.23
2022-12-11T02:23:15.356Z,50.50
2022-12-11T02:25:52.601Z,44.77
2022-12-11T02:28:29.883Z,44.67
2022-12-11T02:31:18.017Z,42.73
2022-12-11T02:34:03.231Z,44.77
2022-12-11T02:36:35.544Z,42.53
2022-12-11T02:39:05.319Z,46.53
2022-12-11T02:41:33.804Z,44.27
2022-12-11T02:44:02.983Z,46.47
2022-12-11T02:46:31.405Z,42.57
2022-12-11T02:48:58.852Z,41.73
2022-12-11T02:51:31.053Z,40.37
2022-12-11T02:53:59.814Z,40.23
2022-12-11T02:56:36.723Z,44.93
2022-12-11T02:59:10.410Z,45.73
2022-12-11T03:01:37.641Z,43.97
2022-12-11T03:04:04.895Z,41.70
2022-12-11T03:06:36.523Z,41.63
2022-12-11T03:09:05.041Z,44.57
2022-12-11T03:11:31.893Z,40.77
2022-12-11T03:13:59.751Z,41.30
2022-12-11T03:16:37.033Z,42.50
2022-12-11T03:19:19.034Z,37.93
2022-12-11T03:21:54.874Z,43.17
2022-12-11T03:24:32.634Z,38.50
2022-12-11T03:27:11.179Z,42.63
2022-12-11T03:29:48.002Z,36.97
2022-12-11T03:32:20.078Z,41.33
2022-12-11T03:34:58.423Z,42.27
2022-12-11T03:37:28.145Z,39.33
2022-12-11T03:40:02.421Z,42.67
2022-12-11T03:42:29.841Z,42.37
2022-12-11T03:44:59.412Z,42.50
2022-12-11T03:47:28.878Z,42.23
2022-12-11T03:49:58.168Z,41.90
2022-12-11T03:52:27.438Z,42.00
2022-12-11T03:54:57.852Z,44.70
2022-12-11T03:57:29.147Z,37.87
2022-12-11T03:59:56.579Z,41.47
2022-12-11T04:02:23.788Z,42.53
2022-12-11T04:04:50.744Z,37.67
2022-12-11T04:07:17.645Z,35.67
2022-12-11T04:09:44.534Z,37.63
2022-12-11T04:12:11.493Z,36.90
2022-12-11T04:14:57.081Z,40.03
2022-12-11T04:17:42.479Z,36.47
2022-12-11T04:20:31.390Z,37.07
2022-12-11T04:23:17.428Z,33.10
2022-12-11T04:25:44.793Z,31.93
2022-12-11T04:28:11.745Z,32.97
2022-12-11T04:30:38.723Z,30.73
2022-12-11T04:33:05.983Z,30.73
2022-12-11T04:35:32.933Z,29.00
2022-12-11T04:38:00.094Z,29.87
2022-12-11T04:40:27.278Z,29.37
2022-12-11T04:42:54.319Z,28.83
2022-12-11T04:45:21.357Z,26.10
2022-12-11T04:47:48.267Z,26.10
2022-12-11T04:50:15.775Z,29.10
2022-12-11T04:52:43.227Z,27.73
2022-12-11T04:55:11.580Z,27.83
2022-12-11T04:57:39.171Z,33.00
2022-12-11T05:00:08.866Z,27.70
2022-12-11T05:02:37.644Z,26.50
2022-12-11T05:05:06.189Z,30.43
2022-12-11T05:07:33.204Z,28.17
2022-12-11T05:10:00.310Z,28.47
2022-12-11T05:12:27.469Z,26.90
2022-12-11T05:14:55.014Z,29.87
2022-12-11T05:17:22.970Z,30.60
2022-12-11T05:19:52.971Z,26.43
2022-12-11T05:22:19.914Z,28.40
2022-12-11T05:24:46.874Z,30.23
2022-12-11T05:27:13.826Z,29.53
2022-12-11T05:29:40.805Z,30.43
2022-12-11T05:32:07.923Z,30.43
2022-12-11T05:34:34.974Z,30.57
2022-12-11T05:37:02.255Z,31.53
2022-12-11T05:39:29.447Z,34.93
2022-12-11T05:41:56.512Z,28.30
2022-12-11T05:44:23.551Z,31.70
2022-12-11T05:46:50.509Z,32.63
2022-12-11T05:49:20.070Z,33.90
2022-12-11T05:51:47.405Z,31.37
2022-12-11T05:54:14.805Z,30.53
2022-12-11T05:56:42.043Z,32.03
2022-12-11T05:59:09.123Z,31.80
2022-12-11T06:01:41.742Z,31.67
2022-12-11T06:04:10.533Z,31.30
2022-12-11T06:06:38.301Z,36.60
2022-12-11T06:09:05.552Z,32.33
2022-12-11T06:11:34.242Z,33.90
2022-12-11T06:14:03.197Z,35.57
2022-12-11T06:16:30.701Z,34.07
2022-12-11T06:18:58.677Z,32.00
2022-12-11T06:21:30.513Z,30.47
2022-12-11T06:24:00.859Z,32.07
2022-12-11T06:26:28.682Z,31.83
2022-12-11T06:28:55.838Z,31.33
2022-12-11T06:31:22.984Z,33.20
2022-12-11T06:33:49.939Z,32.17
2022-12-11T06:36:20.549Z,33.47
2022-12-11T06:38:48.017Z,33.17
2022-12-11T06:41:15.804Z,34.53
2022-12-11T06:43:43.097Z,34.90
2022-12-11T06:46:18.470Z,33.57
2022-12-11T06:48:46.100Z,35.63
2022-12-11T06:51:15.276Z,36.43
2022-12-11T06:53:43.003Z,34.63
2022-12-11T06:56:13.899Z,33.10
2022-12-11T06:58:41.827Z,34.17
2022-12-11T07:01:16.188Z,31.57
2022-12-11T07:03:43.606Z,33.87
2022-12-11T07:06:10.635Z,36.20
2022-12-11T07:08:37.933Z,47.50
2022-12-11T07:11:06.480Z,37.40
2022-12-11T07:13:33.867Z,33.00
2022-12-11T07:16:02.043Z,32.23
2022-12-11T07:18:29.070Z,36.40
2022-12-11T07:20:59.278Z,35.30
2022-12-11T07:23:28.426Z,34.47
2022-12-11T07:25:56.220Z,30.40
2022-12-11T07:28:23.434Z,32.87
2022-12-11T07:30:50.470Z,29.33
2022-12-11T07:33:17.388Z,33.10
2022-12-11T07:35:44.560Z,31.10
2022-12-11T07:38:11.701Z,32.03
2022-12-11T07:40:38.770Z,30.63
2022-12-11T07:43:05.884Z,32.67
2022-12-11T07:45:33.016Z,30.53
2022-12-11T07:48:00.045Z,30.23
2022-12-11T07:50:27.171Z,28.63
2022-12-11T07:52:54.128Z,30.73
2022-12-11T07:55:21.059Z,33.03
2022-12-11T07:57:48.059Z,33.90
2022-12-11T08:00:15.303Z,28.57
2022-12-11T08:02:42.327Z,27.47
2022-12-11T08:05:09.807Z,30.73
2022-12-11T08:07:37.094Z,27.13
2022-12-11T08:10:04.551Z,27.37
2022-12-11T08:12:31.880Z,23.73
2022-12-11T08:14:58.818Z,26.70
2022-12-11T08:17:29.552Z,27.97
2022-12-11T08:19:58.757Z,30.07
2022-12-11T08:22:25.702Z,29.13
2022-12-11T08:24:52.848Z,29.83
2022-12-11T08:27:19.838Z,30.10
2022-12-11T08:29:47.557Z,30.90
2022-12-11T08:32:16.823Z,26.33
2022-12-11T08:34:44.274Z,32.13
2022-12-11T08:37:11.268Z,28.20
2022-12-11T08:39:38.304Z,30.90
2022-12-11T08:42:05.357Z,27.23
2022-12-11T08:44:32.293Z,29.57
2022-12-11T08:46:59.187Z,31.33
2022-12-11T08:49:29.876Z,30.47
2022-12-11T08:51:59.839Z,29.97
2022-12-11T08:54:26.761Z,30.33
2022-12-11T08:56:58.003Z,31.40
2022-12-11T08:59:25.974Z,26.87
2022-12-11T09:01:54.473Z,30.63
2022-12-11T09:04:21.692Z,31.00
2022-12-11T09:06:48.789Z,31.73
2022-12-11T09:09:15.844Z,29.27
2022-12-11T09:11:43.107Z,26.97
2022-12-11T09:14:10.226Z,28.60
2022-12-11T09:16:42.964Z,29.50
2022-12-11T09:19:16.531Z,27.37
2022-12-11T09:21:43.788Z,32.40
2022-12-11T09:24:12.880Z,30.87
2022-12-11T09:26:40.188Z,31.27
2022-12-11T09:29:07.940Z,28.70
2022-12-11T09:31:37.162Z,32.50
2022-12-11T09:34:07.541Z,32.67
2022-12-11T09:36:35.068Z,29.87
2022-12-11T09:39:04.368Z,29.63
2022-12-11T09:41:54.571Z,28.93
2022-12-11T09:44:52.862Z,25.97
2022-12-11T09:47:35.222Z,28.40
2022-12-11T09:50:11.497Z,27.97
2022-12-11T09:53:04.344Z,29.63
2022-12-11T09:56:00.394Z,27.40
2022-12-11T09:58:45.209Z,26.17
2022-12-11T10:01:22.322Z,27.23
2022-12-11T10:04:22.902Z,25.97
2022-12-11T10:06:57.644Z,27.57
2022-12-11T10:09:33.469Z,27.63
2022-12-11T10:12:22.977Z,26.83
2022-12-11T10:15:11.440Z,29.23
2022-12-11T10:17:40.378Z,29.70
2022-12-11T10:20:31.219Z,29.03
2022-12-11T10:22:59.297Z,31.83
2022-12-11T10:25:40.236Z,32.90
2022-12-11T10:28:19.288Z,33.10
2022-12-11T10:31:11.171Z,32.03
2022-12-11T10:33:41.290Z,30.93
2022-12-11T10:36:10.497Z,32.63
2022-12-11T10:38:47.566Z,28.00
2022-12-11T10:41:21.385Z,28.80
2022-12-11T10:43:50.850Z,26.37
2022-12-11T10:46:23.723Z,28.77
2022-12-11T10:49:14.996Z,26.87
2022-12-11T10:51:42.444Z,29.83
2022-12-11T10:54:26.311Z,28.70
2022-12-11T10:56:54.072Z,29.40
2022-12-11T10:59:38.137Z,29.47
2022-12-11T11:02:18.752Z,36.93
2022-12-11T11:04:46.259Z,37.13
2022-12-11T11:07:26.541Z,39.17
2022-12-11T11:10:11.652Z,37.70
2022-12-11T11:12:41.091Z,36.80
2022-12-11T11:15:17.828Z,37.20
2022-12-11T11:17:55.024Z,35.47
2022-12-11T11:20:29.373Z,36.00
2022-12-11T11:23:03.605Z,35.43
2022-12-11T11:25:33.084Z,37.77
2022-12-11T11:28:06.525Z,41.27
2022-12-11T11:30:39.653Z,37.53
2022-12-11T11:33:21.304Z,39.90
2022-12-11T11:36:02.992Z,41.70
2022-12-11T11:38:43.549Z,42.90
2022-12-11T11:41:16.689Z,43.73
2022-12-11T11:43:53.227Z,44.53
2022-12-11T11:46:29.133Z,42.87
2022-12-11T11:49:17.030Z,39.73
2022-12-11T11:51:49.146Z,45.70
2022-12-11T11:54:32.279Z,42.53
2022-12-11T11:57:03.905Z,42.30
2022-12-11T11:59:31.445Z,47.10
2022-12-11T12:01:59.275Z,43.40
2022-12-11T12:04:35.275Z,43.77
2022-12-11T12:07:22.598Z,43.10
2022-12-11T12:10:13.646Z,48.87
2022-12-11T12:13:23.843Z,42.57
2022-12-11T12:15:59.108Z,42.97
2022-12-11T12:18:42.185Z,40.70
2022-12-11T12:21:31.116Z,38.73
2022-12-11T12:24:26.182Z,42.00
2022-12-11T12:26:59.615Z,40.87
2022-12-11T12:29:50.475Z,43.63
2022-12-11T12:32:25.234Z,43.07
2022-12-11T12:35:23.292Z,38.30
2022-12-11T12:37:56.928Z,41.97
2022-12-11T12:40:33.481Z,38.83
2022-12-11T12:43:17.695Z,38.77
2022-12-11T12:46:06.055Z,39.70
2022-12-11T12:48:33.159Z,38.33
2022-12-11T12:51:00.720Z,42.63
2022-12-11T12:53:32.596Z,42.70
2022-12-11T12:56:01.846Z,38.30
2022-12-11T12:58:43.384Z,39.27
2022-12-11T13:01:13.074Z,36.00
2022-12-11T13:03:58.595Z,35.23
2022-12-11T13:06:41.804Z,37.70
2022-12-11T13:09:21.986Z,36.37
2022-12-11T13:11:54.014Z,32.67
2022-12-11T13:14:21.201Z,35.30
2022-12-11T13:16:50.186Z,38.10
2022-12-11T13:19:23.431Z,37.77
2022-12-11T13:22:23.239Z,39.77
2022-12-11T13:24:53.226Z,40.27
2022-12-11T13:27:27.408Z,40.03
2022-12-11T13:30:14.303Z,43.00
2022-12-11T13:32:43.116Z,45.27
2022-12-11T13:35:17.448Z,45.30
2022-12-11T13:37:46.300Z,41.87
2022-12-11T13:40:20.826Z,48.27
2022-12-11T13:42:57.965Z,50.33
2022-12-11T13:45:34.867Z,52.80
2022-12-11T13:48:02.064Z,52.73
2022-12-11T13:50:33.164Z,51.03
2022-12-11T13:53:02.145Z,54.67
2022-12-11T13:55:33.196Z,52.43
2022-12-11T13:58:00.580Z,46.63
2022-12-11T14:00:32.891Z,44.67
2022-12-11T14:03:05.449Z,43.03
2022-12-11T14:05:34.612Z,44.03
2022-12-11T14:08:10.192Z,39.70
2022-12-11T14:10:38.889Z,42.93
2022-12-11T14:13:15.834Z,43.97
2022-12-11T14:15:45.431Z,46.90
2022-12-11T14:18:20.294Z,43.10
2022-12-11T14:20:54.897Z,41.63
2022-12-11T14:23:24.910Z,45.37
2022-12-11T14:26:00.918Z,46.73
2022-12-11T14:28:30.813Z,49.50
2022-12-11T14:31:01.119Z,57.07
2022-12-11T14:33:48.746Z,58.60
2022-12-11T14:36:17.639Z,57.73
2022-12-11T14:38:53.218Z,58.43
2022-12-11T14:41:27.272Z,58.73
2022-12-11T14:43:58.684Z,56.60
2022-12-11T14:46:35.877Z,60.27
2022-12-11T14:49:13.088Z,58.30
2022-12-11T14:51:41.124Z,49.40
2022-12-11T14:54:20.160Z,60.40
2022-12-11T14:56:47.655Z,56.80
2022-12-11T14:59:30.121Z,60.17
2022-12-11T15:02:04.366Z,54.47
2022-12-11T15:04:33.264Z,64.50
2022-12-11T15:07:00.402Z,62.07
2022-12-11T15:09:41.521Z,64.23
2022-12-11T15:12:12.635Z,64.80
2022-12-11T15:14:51.613Z,64.13
2022-12-11T15:17:19.591Z,67.03
2022-12-11T15:19:53.384Z,65.83
2022-12-11T15:22:23.972Z,68.47
2022-12-11T15:24:53.749Z,62.50
2022-12-11T15:27:37.861Z,69.37
2022-12-11T15:30:20.164Z,59.23
2022-12-11T15:32:47.406Z,63.20
2022-12-11T15:35:26.297Z,61.27
2022-12-11T15:37:55.105Z,63.93
2022-12-11T15:40:22.363Z,63.53
2022-12-11T15:42:50.130Z,64.90
2022-12-11T15:45:23.332Z,64.47
2022-12-11T15:47:51.253Z,64.30
2022-12-11T15:50:21.762Z,68.00
2022-12-11T15:52:50.467Z,64.33
2022-12-11T15:55:18.731Z,60.87
2022-12-11T15:57:58.385Z,66.33
2022-12-11T16:00:27.590Z,65.63
2022-12-11T16:02:55.618Z,63.40
2022-12-11T16:05:23.176Z,66.00
2022-12-11T16:07:52.320Z,65.80
2022-12-11T16:10:21.720Z,65.83
2022-12-11T16:12:48.734Z,71.23
2022-12-11T16:15:22.866Z,66.70
2022-12-11T16:17:50.378Z,66.53
2022-12-11T16:20:17.763Z,62.03
2022-12-11T16:22:44.761Z,64.73
2022-12-11T16:25:12.225Z,62.47
2022-12-11T16:27:39.388Z,64.63
2022-12-11T16:30:07.007Z,62.53
2022-12-11T16:32:34.057Z,69.93
2022-12-11T16:35:01.310Z,61.30
2022-12-11T16:37:28.664Z,64.37
2022-12-11T16:39:55.723Z,62.47
2022-12-11T16:42:22.661Z,68.63
2022-12-11T16:44:49.732Z,73.00
2022-12-11T16:47:16.797Z,70.73
2022-12-11T16:49:43.888Z,71.97
2022-12-11T16:52:10.852Z,65.57
2022-12-11T16:54:37.876Z,73.13
2022-12-11T16:57:04.972Z,68.90
2022-12-11T16:59:36.871Z,69.40
2022-12-11T17:02:04.815Z,69.60
2022-12-11T17:04:31.777Z,65.23
2022-12-11T17:06:58.878Z,69.83
2022-12-11T17:09:26.156Z,70.00
2022-12-11T17:11:53.624Z,68.73
2022-12-11T17:14:20.607Z,69.40
2022-12-11T17:16:48.244Z,71.40
2022-12-11T17:19:15.762Z,72.60
2022-12-11T17:21:45.884Z,72.53
2022-12-11T17:24:18.022Z,80.13
2022-12-11T17:26:44.962Z,76.40
2022-12-11T17:29:13.102Z,75.00
2022-12-11T17:31:40.506Z,86.70
2022-12-11T17:34:07.515Z,75.83
2022-12-11T17:36:34.519Z,74.50
2022-12-11T17:39:01.640Z,71.40
2022-12-11T17:41:28.607Z,73.77
2022-12-11T17:43:55.868Z,76.63
2022-12-11T17:46:23.239Z,77.00
2022-12-11T17:48:50.248Z,81.83
2022-12-11T17:51:23.781Z,78.73
2022-12-11T17:53:52.739Z,78.93
2022-12-11T17:56:20.119Z,82.00
2022-12-11T17:58:47.077Z,79.23
2022-12-11T18:01:14.031Z,67.23
2022-12-11T18:03:41.707Z,67.93
2022-12-11T18:06:12.818Z,48.97
2022-12-11T18:08:40.895Z,64.03
2022-12-11T18:11:13.835Z,65.40
2022-12-11T18:13:41.015Z,59.13
2022-12-11T18:16:13.743Z,69.23
2022-12-11T18:18:40.902Z,59.47
2022-12-11T18:21:08.073Z,68.03
2022-12-11T18:23:34.996Z,66.37
2022-12-11T18:26:02.088Z,66.30
2022-12-11T18:28:31.915Z,62.40
2022-12-11T18:31:03.291Z,65.40
2022-12-11T18:33:31.133Z,63.77
2022-12-11T18:35:58.185Z,63.73
2022-12-11T18:38:25.189Z,66.10
2022-12-11T18:40:52.190Z,60.30
2022-12-11T18:43:19.174Z,68.63
2022-12-11T18:45:46.336Z,69.23
2022-12-11T18:48:14.270Z,69.87
2022-12-11T18:50:49.139Z,66.80
2022-12-11T18:53:17.767Z,66.23
2022-12-11T18:55:47.525Z,64.10
2022-12-11T18:58:17.590Z,65.40
2022-12-11T19:00:45.852Z,66.80
2022-12-11T19:03:14.196Z,70.20
2022-12-11T19:05:43.780Z,66.87
2022-12-11T19:08:12.657Z,68.13
2022-12-11T19:10:46.960Z,72.43
2022-12-11T19:13:14.616Z,71.80
2022-12-11T19:15:43.228Z,77.80
2022-12-11T19:18:11.077Z,73.67
2022-12-11T19:20:57.690Z,76.30
2022-12-11T19:23:30.165Z,74.40
2022-12-11T19:25:57.026Z,75.00
2022-12-11T19:28:24.064Z,76.50
2022-12-11T19:30:51.051Z,74.30
2022-12-11T19:33:18.233Z,76.23
2022-12-11T19:35:45.307Z,80.37
2022-12-11T19:38:13.023Z,70.20
2022-12-11T19:40:42.224Z,72.27
2022-12-11T19:43:09.578Z,72.00
2022-12-11T19:45:37.115Z,72.90
2022-12-11T19:48:04.369Z,76.20
2022-12-11T19:50:32.189Z,82.70
2022-12-11T19:52:59.116Z,86.40
2022-12-11T19:55:26.227Z,86.80
2022-12-11T19:57:53.127Z,85.17
2022-12-11T20:00:20.625Z,87.27
2022-12-11T20:02:49.102Z,89.20
2022-12-11T20:05:16.604Z,78.43
2022-12-11T20:07:46.578Z,82.07
2022-12-11T20:10:13.704Z,80.63
2022-12-11T20:12:40.956Z,63.33
2022-12-11T20:15:08.518Z,81.17
2022-12-11T20:17:36.830Z,86.73
2022-12-11T20:20:04.245Z,83.57
2022-12-11T20:22:31.262Z,72.43
2022-12-11T20:24:58.306Z,79.93
2022-12-11T20:27:26.267Z,83.77
2022-12-11T20:29:53.254Z,80.03
2022-12-11T20:32:20.200Z,69.07
2022-12-11T20:34:47.174Z,72.07
2022-12-11T20:37:14.221Z,64.80
2022-12-11T20:39:41.186Z,73.90
2022-12-11T20:42:09.861Z,76.03
2022-12-11T20:44:36.849Z,71.33
2022-12-11T20:47:03.862Z,71.50
2022-12-11T20:49:33.410Z,65.93
2022-12-11T20:52:00.828Z,78.83
2022-12-11T20:54:27.948Z,75.00
2022-12-11T20:56:55.129Z,61.60
2022-12-11T20:59:23.206Z,81.10
2022-12-11T21:01:50.507Z,76.40
2022-12-11T21:04:18.112Z,69.57
2022-12-11T21:06:45.242Z,53.00
2022-12-11T21:09:17.939Z,77.87
2022-12-11T21:11:45.058Z,72.30
2022-12-11T21:14:13.284Z,69.17
2022-12-11T21:16:40.488Z,70.63
2022-12-11T21:19:12.395Z,61.93
2022-12-11T21:21:43.054Z,69.40
2022-12-11T21:24:22.285Z,64.70
2022-12-11T21:26:49.945Z,66.90
2022-12-11T21:29:17.491Z,70.57
2022-12-11T21:31:45.107Z,75.90
2022-12-11T21:34:12.415Z,72.80
2022-12-11T21:36:39.720Z,71.83
2022-12-11T21:39:06.878Z,73.53
2022-12-11T21:41:33.901Z,73.60
2022-12-11T21:46:48.057Z,72.73
2022-12-11T21:49:15.125Z,58.90
2022-12-11T21:51:46.777Z,66.17
2022-12-11T21:54:16.754Z,76.10
2022-12-11T21:56:44.048Z,76.27
2022-12-11T21:59:11.030Z,71.80
2022-12-11T22:01:42.165Z,75.33
2022-12-11T22:04:10.633Z,77.80
2022-12-11T22:06:37.824Z,72.20
2022-12-11T22:09:05.887Z,80.70
2022-12-11T22:11:34.359Z,76.60
2022-12-11T22:14:02.163Z,80.90
2022-12-11T22:16:30.539Z,77.17
2022-12-11T22:18:57.638Z,77.47
2022-12-11T22:21:24.583Z,59.40
2022-12-11T22:23:51.504Z,73.20
2022-12-11T22:26:22.141Z,72.43
2022-12-11T22:28:49.699Z,71.50
2022-12-11T22:31:20.552Z,69.53
2022-12-11T22:33:53.666Z,57.33
2022-12-11T22:36:22.025Z,69.47
2022-12-11T22:38:49.039Z,61.40
2022-12-11T22:41:29.366Z,68.03
2022-12-11T22:43:57.011Z,61.97
2022-12-11T22:46:26.668Z,72.13
2022-12-11T22:48:53.858Z,60.97
2022-12-11T22:51:21.480Z,65.07
2022-12-11T22:53:48.521Z,66.93
2022-12-11T22:56:15.906Z,60.20
2022-12-11T22:58:43.051Z,68.30
2022-12-11T23:01:13.121Z,59.30
2022-12-11T23:03:40.531Z,66.07
2022-12-11T23:06:11.277Z,60.90
2022-12-11T23:08:39.159Z,56.50
2022-12-11T23:11:15.099Z,66.93
2022-12-11T23:13:42.860Z,64.90
2022-12-11T23:16:10.650Z,62.97
2022-12-11T23:18:38.083Z,62.33
2022-12-11T23:21:06.692Z,63.10
2022-12-11T23:23:33.804Z,62.83
2022-12-11T23:26:01.128Z,63.73
2022-12-11T23:28:28.094Z,64.73
2022-12-11T23:30:55.354Z,59.70
2022-12-11T23:33:22.538Z,62.03
2022-12-11T23:35:49.656Z,61.27
2022-12-11T23:38:17.510Z,61.03
2022-12-11T23:40:44.744Z,68.60
2022-12-11T23:43:11.695Z,65.10
2022-12-11T23:45:38.653Z,61.27
2022-12-11T23:48:05.664Z,68.10
2022-12-11T23:50:33.095Z,58.27
2022-12-11T23:53:00.548Z,60.20
2022-12-11T23:55:27.672Z,58.17
2022-12-11T23:57:55.084Z,62.20
